sensor_id;sensor_type;location;lat;lon;timestamp;pressure;altitude;pressure_sealevel;temperature;humidity
63500;BME280;49654;51.142;14.924;2022-12-07T00:01:57;98807.06;;;2.07;85.50
63500;BME280;49654;51.142;14.924;2022-12-07T00:04:25;98846.13;;;2.39;85.65
63500;BME280;49654;51.142;14.924;2022-12-07T00:06:52;98869.66;;;2.54;85.25
63500;BME280;49654;51.142;14.924;2022-12-07T00:09:20;98870.00;;;2.40;85.74
63500;BME280;49654;51.142;14.924;2022-12-07T00:11:50;98775.59;;;1.85;85.70
63500;BME280;49654;51.142;14.924;2022-12-07T00:14:18;98860.16;;;2.35;86.07
63500;BME280;49654;51.142;14.924;2022-12-07T00:16:45;98839.84;;;2.13;86.22
63500;BME280;49654;51.142;14.924;2022-12-07T00:19:13;98824.94;;;1.97;86.94
63500;BME280;49654;51.142;14.924;2022-12-07T00:21:41;98827.16;;;2.11;87.09
63500;BME280;49654;51.142;14.924;2022-12-07T00:24:10;98863.56;;;2.36;86.54
63500;BME280;49654;51.142;14.924;2022-12-07T00:26:40;98759.66;;;1.82;86.54
63500;BME280;49654;51.142;14.924;2022-12-07T00:29:12;98821.03;;;2.23;86.11
63500;BME280;49654;51.142;14.924;2022-12-07T00:31:41;98752.47;;;1.75;86.19
63500;BME280;49654;51.142;14.924;2022-12-07T00:34:13;98845.16;;;2.31;86.21
63500;BME280;49654;51.142;14.924;2022-12-07T00:36:41;98709.97;;;1.54;86.33
63500;BME280;49654;51.142;14.924;2022-12-07T00:39:08;98724.28;;;1.66;86.13
63500;BME280;49654;51.142;14.924;2022-12-07T00:41:35;98691.19;;;1.43;85.83
63500;BME280;49654;51.142;14.924;2022-12-07T00:44:03;98719.97;;;1.66;86.33
63500;BME280;49654;51.142;14.924;2022-12-07T00:46:32;98726.25;;;1.83;86.10
63500;BME280;49654;51.142;14.924;2022-12-07T00:48:59;98746.66;;;2.04;85.11
63500;BME280;49654;51.142;14.924;2022-12-07T00:51:26;98832.75;;;2.66;85.34
63500;BME280;49654;51.142;14.924;2022-12-07T00:53:53;98851.91;;;2.72;85.13
63500;BME280;49654;51.142;14.924;2022-12-07T00:56:22;98836.22;;;2.56;85.27
63500;BME280;49654;51.142;14.924;2022-12-07T00:58:52;98850.41;;;2.69;85.29
63500;BME280;49654;51.142;14.924;2022-12-07T01:01:19;98818.41;;;2.54;84.78
63500;BME280;49654;51.142;14.924;2022-12-07T01:03:47;98849.91;;;2.85;84.79
63500;BME280;49654;51.142;14.924;2022-12-07T01:06:15;98836.22;;;2.65;85.08
63500;BME280;49654;51.142;14.924;2022-12-07T01:08:44;98834.88;;;2.61;85.15
63500;BME280;49654;51.142;14.924;2022-12-07T01:11:14;98844.50;;;2.79;85.45
63500;BME280;49654;51.142;14.924;2022-12-07T01:13:41;98841.50;;;2.73;85.41
63500;BME280;49654;51.142;14.924;2022-12-07T01:16:10;98849.88;;;2.75;85.43
63500;BME280;49654;51.142;14.924;2022-12-07T01:18:39;98856.78;;;2.75;86.19
63500;BME280;49654;51.142;14.924;2022-12-07T01:21:10;98832.88;;;2.74;86.02
63500;BME280;49654;51.142;14.924;2022-12-07T01:23:38;98808.69;;;2.58;86.16
63500;BME280;49654;51.142;14.924;2022-12-07T01:26:07;98867.69;;;2.87;86.34
63500;BME280;49654;51.142;14.924;2022-12-07T01:28:34;98827.88;;;2.63;87.01
63500;BME280;49654;51.142;14.924;2022-12-07T01:31:06;98861.25;;;2.83;87.55
63500;BME280;49654;51.142;14.924;2022-12-07T01:33:35;98806.00;;;2.59;88.00
63500;BME280;49654;51.142;14.924;2022-12-07T01:36:03;98834.09;;;2.80;87.78
63500;BME280;49654;51.142;14.924;2022-12-07T01:38:33;98858.16;;;2.98;88.04
63500;BME280;49654;51.142;14.924;2022-12-07T01:41:01;98822.44;;;2.47;88.81
63500;BME280;49654;51.142;14.924;2022-12-07T01:43:31;98857.19;;;2.90;88.86
63500;BME280;49654;51.142;14.924;2022-12-07T01:45:59;98858.69;;;2.92;88.57
63500;BME280;49654;51.142;14.924;2022-12-07T01:48:29;98841.69;;;2.91;88.94
63500;BME280;49654;51.142;14.924;2022-12-07T01:51:00;98856.25;;;2.91;88.58
63500;BME280;49654;51.142;14.924;2022-12-07T01:53:29;98845.84;;;2.83;87.92
63500;BME280;49654;51.142;14.924;2022-12-07T01:55:59;98829.22;;;2.77;87.91
63500;BME280;49654;51.142;14.924;2022-12-07T01:58:26;98849.22;;;2.83;87.41
63500;BME280;49654;51.142;14.924;2022-12-07T02:00:53;98838.72;;;2.96;86.52
63500;BME280;49654;51.142;14.924;2022-12-07T02:03:24;98840.34;;;2.97;86.24
63500;BME280;49654;51.142;14.924;2022-12-07T02:05:54;98826.16;;;2.93;85.75
63500;BME280;49654;51.142;14.924;2022-12-07T02:08:22;98818.84;;;2.79;85.80
63500;BME280;49654;51.142;14.924;2022-12-07T02:10:49;98836.00;;;2.88;85.62
63500;BME280;49654;51.142;14.924;2022-12-07T02:13:20;98801.56;;;2.71;85.96
63500;BME280;49654;51.142;14.924;2022-12-07T02:15:59;98821.97;;;2.92;85.74
63500;BME280;49654;51.142;14.924;2022-12-07T02:18:39;98839.78;;;3.03;84.65
63500;BME280;49654;51.142;14.924;2022-12-07T02:21:12;98833.19;;;3.10;84.74
63500;BME280;49654;51.142;14.924;2022-12-07T02:27:27;98832.22;;;3.11;84.60
63500;BME280;49654;51.142;14.924;2022-12-07T02:29:59;98831.81;;;2.96;85.00
63500;BME280;49654;51.142;14.924;2022-12-07T02:32:33;98822.50;;;3.05;84.51
63500;BME280;49654;51.142;14.924;2022-12-07T02:35:06;98823.84;;;2.99;83.72
63500;BME280;49654;51.142;14.924;2022-12-07T02:37:38;98785.25;;;2.72;83.88
63500;BME280;49654;51.142;14.924;2022-12-07T02:40:11;98741.09;;;2.59;83.54
63500;BME280;49654;51.142;14.924;2022-12-07T02:42:43;98820.09;;;3.13;82.77
63500;BME280;49654;51.142;14.924;2022-12-07T02:45:18;98809.41;;;2.98;82.38
63500;BME280;49654;51.142;14.924;2022-12-07T02:48:02;98802.25;;;2.92;82.83
63500;BME280;49654;51.142;14.924;2022-12-07T02:50:30;98812.78;;;2.89;82.85
63500;BME280;49654;51.142;14.924;2022-12-07T02:52:58;98697.50;;;2.20;82.88
63500;BME280;49654;51.142;14.924;2022-12-07T02:55:29;98745.53;;;2.57;82.73
63500;BME280;49654;51.142;14.924;2022-12-07T02:58:10;98797.94;;;2.93;82.81
63500;BME280;49654;51.142;14.924;2022-12-07T03:00:50;98735.84;;;2.60;82.46
63500;BME280;49654;51.142;14.924;2022-12-07T03:03:19;98727.75;;;2.45;82.34
63500;BME280;49654;51.142;14.924;2022-12-07T03:05:55;98776.63;;;2.83;82.33
63500;BME280;49654;51.142;14.924;2022-12-07T03:08:31;98767.16;;;2.64;82.29
63500;BME280;49654;51.142;14.924;2022-12-07T03:11:04;98804.94;;;2.81;82.12
63500;BME280;49654;51.142;14.924;2022-12-07T03:13:35;98739.59;;;2.56;81.62
63500;BME280;49654;51.142;14.924;2022-12-07T03:16:09;98728.09;;;2.31;81.97
63500;BME280;49654;51.142;14.924;2022-12-07T03:18:43;98786.03;;;2.72;82.44
63500;BME280;49654;51.142;14.924;2022-12-07T03:21:16;98606.94;;;1.61;81.94
63500;BME280;49654;51.142;14.924;2022-12-07T03:24:08;98752.97;;;2.69;81.80
63500;BME280;49654;51.142;14.924;2022-12-07T03:26:40;98783.09;;;3.06;81.30
63500;BME280;49654;51.142;14.924;2022-12-07T03:29:13;98711.69;;;2.43;81.26
63500;BME280;49654;51.142;14.924;2022-12-07T03:31:46;98731.75;;;2.29;81.21
63500;BME280;49654;51.142;14.924;2022-12-07T03:34:19;98590.38;;;1.46;80.61
63500;BME280;49654;51.142;14.924;2022-12-07T03:36:56;98610.06;;;1.74;80.57
63500;BME280;49654;51.142;14.924;2022-12-07T03:39:28;98810.63;;;2.85;81.49
63500;BME280;49654;51.142;14.924;2022-12-07T03:41:59;98799.81;;;2.91;81.33
63500;BME280;49654;51.142;14.924;2022-12-07T03:44:28;98800.38;;;3.04;81.07
63500;BME280;49654;51.142;14.924;2022-12-07T03:47:01;98791.84;;;2.94;81.22
63500;BME280;49654;51.142;14.924;2022-12-07T03:49:35;98778.75;;;2.78;81.47
63500;BME280;49654;51.142;14.924;2022-12-07T03:52:12;98790.00;;;2.96;81.08
63500;BME280;49654;51.142;14.924;2022-12-07T03:54:47;98771.19;;;2.86;80.91
63500;BME280;49654;51.142;14.924;2022-12-07T03:57:17;98599.03;;;1.74;80.91
63500;BME280;49654;51.142;14.924;2022-12-07T03:59:48;98701.56;;;2.51;80.30
63500;BME280;49654;51.142;14.924;2022-12-07T04:02:18;98722.31;;;2.39;80.89
63500;BME280;49654;51.142;14.924;2022-12-07T04:04:46;98786.59;;;2.95;80.88
63500;BME280;49654;51.142;14.924;2022-12-07T04:07:13;98561.69;;;1.52;81.26
63500;BME280;49654;51.142;14.924;2022-12-07T04:09:41;98725.84;;;2.47;80.72
63500;BME280;49654;51.142;14.924;2022-12-07T04:12:08;98673.78;;;2.28;80.68
63500;BME280;49654;51.142;14.924;2022-12-07T04:14:37;98670.94;;;2.31;80.36
63500;BME280;49654;51.142;14.924;2022-12-07T04:17:05;98744.63;;;2.67;80.68
63500;BME280;49654;51.142;14.924;2022-12-07T04:19:34;98587.72;;;1.86;80.29
63500;BME280;49654;51.142;14.924;2022-12-07T04:22:03;98661.50;;;2.21;80.42
63500;BME280;49654;51.142;14.924;2022-12-07T04:24:31;98627.66;;;2.08;80.34
63500;BME280;49654;51.142;14.924;2022-12-07T04:26:58;98644.91;;;2.06;80.45
63500;BME280;49654;51.142;14.924;2022-12-07T04:29:26;98671.34;;;2.26;80.13
63500;BME280;49654;51.142;14.924;2022-12-07T04:31:53;98730.44;;;2.63;79.54
63500;BME280;49654;51.142;14.924;2022-12-07T04:34:21;98609.91;;;1.66;79.99
63500;BME280;49654;51.142;14.924;2022-12-07T04:36:50;98757.97;;;2.81;79.82
63500;BME280;49654;51.142;14.924;2022-12-07T04:39:20;98632.97;;;1.66;80.03
63500;BME280;49654;51.142;14.924;2022-12-07T04:41:47;98754.59;;;2.51;80.40
63500;BME280;49654;51.142;14.924;2022-12-07T04:44:16;98547.63;;;1.37;78.70
63500;BME280;49654;51.142;14.924;2022-12-07T04:46:45;98689.16;;;2.28;79.22
63500;BME280;49654;51.142;14.924;2022-12-07T04:49:13;98599.03;;;1.64;78.82
63500;BME280;49654;51.142;14.924;2022-12-07T04:51:42;98751.50;;;2.76;78.52
63500;BME280;49654;51.142;14.924;2022-12-07T04:54:11;98563.19;;;1.55;77.61
63500;BME280;49654;51.142;14.924;2022-12-07T04:56:39;98770.13;;;2.88;77.70
63500;BME280;49654;51.142;14.924;2022-12-07T04:59:06;98733.56;;;2.57;78.36
63500;BME280;49654;51.142;14.924;2022-12-07T05:01:33;98746.63;;;2.73;78.04
63500;BME280;49654;51.142;14.924;2022-12-07T05:04:01;98714.94;;;2.36;78.52
63500;BME280;49654;51.142;14.924;2022-12-07T05:06:28;98683.19;;;2.17;78.63
63500;BME280;49654;51.142;14.924;2022-12-07T05:08:55;98677.81;;;2.20;78.28
63500;BME280;49654;51.142;14.924;2022-12-07T05:11:24;98638.00;;;1.87;78.06
63500;BME280;49654;51.142;14.924;2022-12-07T05:14:09;98675.09;;;2.12;77.87
63500;BME280;49654;51.142;14.924;2022-12-07T05:16:37;98748.75;;;2.39;78.12
63500;BME280;49654;51.142;14.924;2022-12-07T05:19:05;98748.75;;;2.30;77.92
63500;BME280;49654;51.142;14.924;2022-12-07T05:21:32;98726.91;;;2.25;77.83
63500;BME280;49654;51.142;14.924;2022-12-07T05:24:00;98745.38;;;2.19;77.55
63500;BME280;49654;51.142;14.924;2022-12-07T05:26:28;98682.59;;;1.85;77.76
63500;BME280;49654;51.142;14.924;2022-12-07T05:28:56;98676.41;;;1.87;77.33
63500;BME280;49654;51.142;14.924;2022-12-07T05:31:25;98564.13;;;0.83;77.75
63500;BME280;49654;51.142;14.924;2022-12-07T05:33:53;98703.81;;;1.66;78.68
63500;BME280;49654;51.142;14.924;2022-12-07T05:36:20;98665.75;;;1.42;78.89
63500;BME280;49654;51.142;14.924;2022-12-07T05:38:47;98733.06;;;1.63;79.67
63500;BME280;49654;51.142;14.924;2022-12-07T05:41:16;98716.66;;;1.45;80.93
63500;BME280;49654;51.142;14.924;2022-12-07T05:44:03;98715.88;;;1.54;80.83
63500;BME280;49654;51.142;14.924;2022-12-07T05:46:30;98709.31;;;1.61;80.62
63500;BME280;49654;51.142;14.924;2022-12-07T05:48:58;98716.63;;;1.75;80.41
63500;BME280;49654;51.142;14.924;2022-12-07T05:51:25;98686.97;;;1.33;81.16
63500;BME280;49654;51.142;14.924;2022-12-07T05:53:52;98711.91;;;1.40;81.77
63500;BME280;49654;51.142;14.924;2022-12-07T05:56:19;98712.22;;;1.47;81.58
63500;BME280;49654;51.142;14.924;2022-12-07T05:58:46;98718.44;;;1.54;81.40
63500;BME280;49654;51.142;14.924;2022-12-07T06:01:32;98629.06;;;1.01;81.81
63500;BME280;49654;51.142;14.924;2022-12-07T06:04:00;98601.69;;;0.82;81.72
63500;BME280;49654;51.142;14.924;2022-12-07T06:06:27;98506.59;;;0.16;81.79
63500;BME280;49654;51.142;14.924;2022-12-07T06:08:55;98694.16;;;1.18;82.84
63500;BME280;49654;51.142;14.924;2022-12-07T06:11:22;98701.50;;;1.32;83.11
63500;BME280;49654;51.142;14.924;2022-12-07T06:14:07;98713.00;;;1.38;82.64
63500;BME280;49654;51.142;14.924;2022-12-07T06:16:36;98605.41;;;0.78;82.99
63500;BME280;49654;51.142;14.924;2022-12-07T06:19:04;98587.22;;;0.71;82.51
63500;BME280;49654;51.142;14.924;2022-12-07T06:21:31;98602.34;;;0.84;82.28
63500;BME280;49654;51.142;14.924;2022-12-07T06:23:58;98684.41;;;1.33;82.44
63500;BME280;49654;51.142;14.924;2022-12-07T06:26:26;98683.66;;;1.42;82.42
63500;BME280;49654;51.142;14.924;2022-12-07T06:28:53;98657.34;;;1.30;82.01
63500;BME280;49654;51.142;14.924;2022-12-07T06:31:20;98694.38;;;1.66;81.27
63500;BME280;49654;51.142;14.924;2022-12-07T06:33:49;98701.72;;;1.81;80.89
63500;BME280;49654;51.142;14.924;2022-12-07T06:36:16;98634.66;;;1.46;80.15
63500;BME280;49654;51.142;14.924;2022-12-07T06:38:44;98631.97;;;1.48;80.02
63500;BME280;49654;51.142;14.924;2022-12-07T06:41:11;98635.34;;;1.58;79.98
63500;BME280;49654;51.142;14.924;2022-12-07T06:43:38;98686.94;;;2.04;79.31
63500;BME280;49654;51.142;14.924;2022-12-07T06:46:05;98610.34;;;1.71;78.74
63500;BME280;49654;51.142;14.924;2022-12-07T06:48:32;98694.38;;;2.16;79.02
63500;BME280;49654;51.142;14.924;2022-12-07T06:51:01;98685.66;;;2.29;78.36
63500;BME280;49654;51.142;14.924;2022-12-07T06:53:28;98670.53;;;2.25;78.20
63500;BME280;49654;51.142;14.924;2022-12-07T06:55:56;98589.75;;;1.73;78.35
63500;BME280;49654;51.142;14.924;2022-12-07T06:58:23;98506.56;;;1.29;78.45
63500;BME280;49654;51.142;14.924;2022-12-07T07:00:51;98562.66;;;1.70;78.01
63500;BME280;49654;51.142;14.924;2022-12-07T07:03:18;98613.63;;;2.03;78.37
63500;BME280;49654;51.142;14.924;2022-12-07T07:05:46;98566.25;;;1.58;78.85
63500;BME280;49654;51.142;14.924;2022-12-07T07:08:14;98600.44;;;1.97;78.69
63500;BME280;49654;51.142;14.924;2022-12-07T07:10:42;98659.47;;;2.25;78.90
63500;BME280;49654;51.142;14.924;2022-12-07T07:13:09;98549.84;;;1.70;78.59
63500;BME280;49654;51.142;14.924;2022-12-07T07:15:37;98641.53;;;2.15;79.10
63500;BME280;49654;51.142;14.924;2022-12-07T07:18:05;98572.09;;;1.70;79.14
63500;BME280;49654;51.142;14.924;2022-12-07T07:20:32;98669.88;;;2.43;79.32
63500;BME280;49654;51.142;14.924;2022-12-07T07:22:59;98564.25;;;1.52;80.39
63500;BME280;49654;51.142;14.924;2022-12-07T07:25:28;98553.34;;;1.69;80.20
63500;BME280;49654;51.142;14.924;2022-12-07T07:27:55;98594.47;;;1.97;79.70
63500;BME280;49654;51.142;14.924;2022-12-07T07:30:25;98630.75;;;2.31;79.57
63500;BME280;49654;51.142;14.924;2022-12-07T07:32:56;98676.06;;;2.60;80.07
63500;BME280;49654;51.142;14.924;2022-12-07T07:35:26;98655.59;;;2.50;80.31
63500;BME280;49654;51.142;14.924;2022-12-07T07:37:54;98556.88;;;1.88;79.71
63500;BME280;49654;51.142;14.924;2022-12-07T07:40:22;98605.03;;;2.23;79.62
63500;BME280;49654;51.142;14.924;2022-12-07T07:42:51;98638.84;;;2.56;79.09
63500;BME280;49654;51.142;14.924;2022-12-07T07:45:20;98661.09;;;2.65;79.48
63500;BME280;49654;51.142;14.924;2022-12-07T07:47:48;98474.03;;;1.60;78.75
63500;BME280;49654;51.142;14.924;2022-12-07T07:50:16;98587.47;;;2.28;79.08
63500;BME280;49654;51.142;14.924;2022-12-07T07:52:43;98625.09;;;2.47;78.79
63500;BME280;49654;51.142;14.924;2022-12-07T07:55:11;98567.94;;;2.17;78.43
63500;BME280;49654;51.142;14.924;2022-12-07T07:57:39;98665.94;;;2.87;78.89
63500;BME280;49654;51.142;14.924;2022-12-07T08:00:11;98665.38;;;2.93;79.29
63500;BME280;49654;51.142;14.924;2022-12-07T08:02:38;98648.94;;;2.76;79.48
63500;BME280;49654;51.142;14.924;2022-12-07T08:05:06;98668.50;;;2.87;78.38
63500;BME280;49654;51.142;14.924;2022-12-07T08:07:34;98660.53;;;2.81;78.82
63500;BME280;49654;51.142;14.924;2022-12-07T08:10:01;98668.91;;;2.92;77.92
63500;BME280;49654;51.142;14.924;2022-12-07T08:12:28;98612.91;;;2.68;78.45
63500;BME280;49654;51.142;14.924;2022-12-07T08:14:55;98660.25;;;2.93;78.63
63500;BME280;49654;51.142;14.924;2022-12-07T08:17:23;98675.38;;;2.96;78.48
63500;BME280;49654;51.142;14.924;2022-12-07T08:19:50;98662.97;;;2.92;79.11
63500;BME280;49654;51.142;14.924;2022-12-07T08:22:18;98641.66;;;2.53;79.54
63500;BME280;49654;51.142;14.924;2022-12-07T08:24:45;98671.50;;;2.54;81.14
63500;BME280;49654;51.142;14.924;2022-12-07T08:27:12;98679.16;;;2.44;82.24
63500;BME280;49654;51.142;14.924;2022-12-07T08:29:39;98618.88;;;2.01;83.00
63500;BME280;49654;51.142;14.924;2022-12-07T08:32:06;98649.47;;;2.03;84.07
63500;BME280;49654;51.142;14.924;2022-12-07T08:34:35;98670.78;;;2.03;85.16
63500;BME280;49654;51.142;14.924;2022-12-07T08:37:02;98671.19;;;2.08;85.45
63500;BME280;49654;51.142;14.924;2022-12-07T08:39:29;98683.31;;;2.06;86.24
63500;BME280;49654;51.142;14.924;2022-12-07T08:41:56;98630.84;;;1.91;85.51
63500;BME280;49654;51.142;14.924;2022-12-07T08:44:24;98670.53;;;2.06;86.45
63500;BME280;49654;51.142;14.924;2022-12-07T08:46:53;98671.88;;;2.20;86.63
63500;BME280;49654;51.142;14.924;2022-12-07T08:49:24;98590.69;;;1.72;85.99
63500;BME280;49654;51.142;14.924;2022-12-07T08:51:54;98648.69;;;2.02;85.86
63500;BME280;49654;51.142;14.924;2022-12-07T08:54:22;98674.72;;;2.26;85.59
63500;BME280;49654;51.142;14.924;2022-12-07T08:56:49;98684.56;;;2.31;86.05
63500;BME280;49654;51.142;14.924;2022-12-07T08:59:18;98646.13;;;2.02;86.64
63500;BME280;49654;51.142;14.924;2022-12-07T09:01:46;98492.28;;;1.16;86.07
63500;BME280;49654;51.142;14.924;2022-12-07T09:04:13;98472.88;;;1.04;85.98
63500;BME280;49654;51.142;14.924;2022-12-07T09:06:41;98668.91;;;2.34;86.12
63500;BME280;49654;51.142;14.924;2022-12-07T09:09:11;98680.53;;;2.48;85.94
63500;BME280;49654;51.142;14.924;2022-12-07T09:11:39;98681.88;;;2.62;85.80
63500;BME280;49654;51.142;14.924;2022-12-07T09:14:06;98557.81;;;1.77;85.61
63500;BME280;49654;51.142;14.924;2022-12-07T09:16:33;98682.13;;;2.78;85.54
63500;BME280;49654;51.142;14.924;2022-12-07T09:19:01;98681.88;;;2.81;85.20
63500;BME280;49654;51.142;14.924;2022-12-07T09:21:28;98693.97;;;2.98;85.15
63500;BME280;49654;51.142;14.924;2022-12-07T09:23:55;98680.19;;;2.99;84.85
63500;BME280;49654;51.142;14.924;2022-12-07T09:26:23;98685.63;;;2.87;84.78
63500;BME280;49654;51.142;14.924;2022-12-07T09:28:51;98611.75;;;2.53;84.88
63500;BME280;49654;51.142;14.924;2022-12-07T09:31:18;98681.81;;;3.10;84.55
63500;BME280;49654;51.142;14.924;2022-12-07T09:33:46;98676.00;;;3.08;85.10
63500;BME280;49654;51.142;14.924;2022-12-07T09:36:13;98675.72;;;3.11;84.91
63500;BME280;49654;51.142;14.924;2022-12-07T09:38:40;98671.94;;;3.15;84.59
63500;BME280;49654;51.142;14.924;2022-12-07T09:41:07;98647.28;;;3.05;84.55
63500;BME280;49654;51.142;14.924;2022-12-07T09:43:36;98666.66;;;3.26;84.10
63500;BME280;49654;51.142;14.924;2022-12-07T09:46:05;98668.53;;;3.34;84.41
63500;BME280;49654;51.142;14.924;2022-12-07T09:48:34;98669.94;;;3.56;83.88
63500;BME280;49654;51.142;14.924;2022-12-07T09:51:13;98657.63;;;3.50;82.76
63500;BME280;49654;51.142;14.924;2022-12-07T09:53:41;98649.03;;;3.41;82.99
63500;BME280;49654;51.142;14.924;2022-12-07T09:56:11;98611.53;;;3.31;83.10
63500;BME280;49654;51.142;14.924;2022-12-07T09:58:43;98655.31;;;3.57;82.88
63500;BME280;49654;51.142;14.924;2022-12-07T10:01:14;98621.06;;;3.48;82.38
63500;BME280;49654;51.142;14.924;2022-12-07T10:03:47;98595.47;;;3.29;82.14
63500;BME280;49654;51.142;14.924;2022-12-07T10:06:15;98648.53;;;3.65;81.86
63500;BME280;49654;51.142;14.924;2022-12-07T10:08:43;98641.69;;;3.56;82.18
63500;BME280;49654;51.142;14.924;2022-12-07T10:11:11;98634.34;;;3.61;82.12
63500;BME280;49654;51.142;14.924;2022-12-07T10:13:43;98640.66;;;3.67;81.19
63500;BME280;49654;51.142;14.924;2022-12-07T10:16:31;98641.63;;;3.66;81.05
63500;BME280;49654;51.142;14.924;2022-12-07T10:19:18;98627.66;;;3.78;81.14
63500;BME280;49654;51.142;14.924;2022-12-07T10:22:00;98605.84;;;3.64;80.60
63500;BME280;49654;51.142;14.924;2022-12-07T10:24:27;98594.31;;;3.41;80.58
63500;BME280;49654;51.142;14.924;2022-12-07T10:26:54;98635.88;;;3.82;79.95
63500;BME280;49654;51.142;14.924;2022-12-07T10:29:28;98635.47;;;4.04;79.01
63500;BME280;49654;51.142;14.924;2022-12-07T10:31:57;98639.13;;;4.01;78.85
63500;BME280;49654;51.142;14.924;2022-12-07T10:34:27;98591.69;;;3.78;78.13
63500;BME280;49654;51.142;14.924;2022-12-07T10:37:14;98638.19;;;4.20;77.33
63500;BME280;49654;51.142;14.924;2022-12-07T10:39:42;98640.59;;;4.04;77.74
63500;BME280;49654;51.142;14.924;2022-12-07T10:42:17;98637.59;;;4.09;77.77
63500;BME280;49654;51.142;14.924;2022-12-07T10:44:46;98595.59;;;4.00;77.98
63500;BME280;49654;51.142;14.924;2022-12-07T10:47:20;98555.75;;;3.96;77.49
63500;BME280;49654;51.142;14.924;2022-12-07T10:50:15;98628.09;;;4.45;76.40
63500;BME280;49654;51.142;14.924;2022-12-07T10:52:56;98634.06;;;4.63;76.40
63500;BME280;49654;51.142;14.924;2022-12-07T10:55:34;98632.78;;;4.67;76.43
63500;BME280;49654;51.142;14.924;2022-12-07T10:58:17;98635.09;;;4.78;75.11
63500;BME280;49654;51.142;14.924;2022-12-07T11:00:55;98622.75;;;4.82;74.44
63500;BME280;49654;51.142;14.924;2022-12-07T11:03:39;98505.97;;;3.97;73.57
63500;BME280;49654;51.142;14.924;2022-12-07T11:06:19;98635.81;;;4.63;74.88
63500;BME280;49654;51.142;14.924;2022-12-07T11:08:58;98635.44;;;4.58;74.38
63500;BME280;49654;51.142;14.924;2022-12-07T11:11:33;98632.34;;;4.72;74.90
63500;BME280;49654;51.142;14.924;2022-12-07T11:14:08;98638.38;;;4.45;74.69
63500;BME280;49654;51.142;14.924;2022-12-07T11:16:50;98629.13;;;4.52;74.85
63500;BME280;49654;51.142;14.924;2022-12-07T11:19:46;98624.59;;;4.46;74.55
63500;BME280;49654;51.142;14.924;2022-12-07T11:22:20;98631.25;;;4.57;74.63
63500;BME280;49654;51.142;14.924;2022-12-07T11:24:55;98595.59;;;4.18;73.57
63500;BME280;49654;51.142;14.924;2022-12-07T11:27:32;98640.16;;;4.26;73.04
63500;BME280;49654;51.142;14.924;2022-12-07T11:30:17;98613.78;;;4.42;73.55
63500;BME280;49654;51.142;14.924;2022-12-07T11:33:14;98615.75;;;4.48;73.34
63500;BME280;49654;51.142;14.924;2022-12-07T11:35:52;98606.66;;;4.54;73.76
63500;BME280;49654;51.142;14.924;2022-12-07T11:38:26;98610.91;;;4.63;73.67
63500;BME280;49654;51.142;14.924;2022-12-07T11:41:01;98609.78;;;4.92;72.36
63500;BME280;49654;51.142;14.924;2022-12-07T11:43:51;98555.25;;;4.54;72.32
63500;BME280;49654;51.142;14.924;2022-12-07T11:46:22;98607.38;;;4.90;71.95
63500;BME280;49654;51.142;14.924;2022-12-07T11:48:58;98596.47;;;4.70;72.31
63500;BME280;49654;51.142;14.924;2022-12-07T11:51:29;98529.25;;;4.39;72.47
63500;BME280;49654;51.142;14.924;2022-12-07T11:54:03;98608.28;;;5.07;72.63
63500;BME280;49654;51.142;14.924;2022-12-07T11:56:36;98594.75;;;5.05;71.33
63500;BME280;49654;51.142;14.924;2022-12-07T11:59:09;98536.78;;;4.59;71.79
63500;BME280;49654;51.142;14.924;2022-12-07T12:01:50;98607.25;;;5.00;70.86
63500;BME280;49654;51.142;14.924;2022-12-07T12:04:28;98607.19;;;5.10;71.37
63500;BME280;49654;51.142;14.924;2022-12-07T12:06:57;98596.13;;;5.25;71.39
63500;BME280;49654;51.142;14.924;2022-12-07T12:09:47;98594.34;;;4.92;71.45
63500;BME280;49654;51.142;14.924;2022-12-07T12:12:52;98555.59;;;4.59;72.86
63500;BME280;49654;51.142;14.924;2022-12-07T12:15:56;98575.59;;;4.73;72.23
63500;BME280;49654;51.142;14.924;2022-12-07T12:18:52;98585.84;;;4.65;72.36
63500;BME280;49654;51.142;14.924;2022-12-07T12:21:45;98585.66;;;4.85;72.45
63500;BME280;49654;51.142;14.924;2022-12-07T12:24:32;98573.47;;;4.95;73.33
63500;BME280;49654;51.142;14.924;2022-12-07T12:27:21;98564.91;;;4.86;72.98
63500;BME280;49654;51.142;14.924;2022-12-07T12:30:25;98587.19;;;5.03;73.29
63500;BME280;49654;51.142;14.924;2022-12-07T12:33:16;98536.47;;;4.62;72.00
63500;BME280;49654;51.142;14.924;2022-12-07T12:36:19;98587.69;;;5.07;74.37
63500;BME280;49654;51.142;14.924;2022-12-07T12:39:10;98583.38;;;4.82;73.94
63500;BME280;49654;51.142;14.924;2022-12-07T12:41:57;98595.53;;;4.97;75.55
63500;BME280;49654;51.142;14.924;2022-12-07T12:45:04;98595.47;;;4.89;75.26
63500;BME280;49654;51.142;14.924;2022-12-07T12:47:55;98592.03;;;4.37;77.38
63500;BME280;49654;51.142;14.924;2022-12-07T12:50:40;98595.16;;;4.22;77.92
63500;BME280;49654;51.142;14.924;2022-12-07T12:53:26;98600.56;;;3.84;78.57
63500;BME280;49654;51.142;14.924;2022-12-07T12:56:28;98593.66;;;3.84;79.47
63500;BME280;49654;51.142;14.924;2022-12-07T12:59:25;98587.91;;;3.55;80.00
63500;BME280;49654;51.142;14.924;2022-12-07T13:02:20;98590.53;;;3.45;80.81
63500;BME280;49654;51.142;14.924;2022-12-07T13:05:18;98584.50;;;3.36;80.45
63500;BME280;49654;51.142;14.924;2022-12-07T13:08:13;98594.56;;;3.20;79.88
63500;BME280;49654;51.142;14.924;2022-12-07T13:10:45;98580.16;;;3.09;79.29
63500;BME280;49654;51.142;14.924;2022-12-07T13:13:33;98591.75;;;3.13;79.20
63500;BME280;49654;51.142;14.924;2022-12-07T13:22:42;98607.31;;;3.02;80.22
63500;BME280;49654;51.142;14.924;2022-12-07T13:25:11;98608.69;;;2.96;80.61
63500;BME280;49654;51.142;14.924;2022-12-07T13:27:41;98594.38;;;2.94;80.97
63500;BME280;49654;51.142;14.924;2022-12-07T13:30:15;98591.34;;;2.71;81.40
63500;BME280;49654;51.142;14.924;2022-12-07T13:32:43;98594.19;;;2.58;82.34
63500;BME280;49654;51.142;14.924;2022-12-07T13:35:31;98612.78;;;2.60;82.35
63500;BME280;49654;51.142;14.924;2022-12-07T13:38:02;98588.03;;;2.03;83.22